Terminal Aerodrome Forecast
Issued by NWS

Current Version | Previous Version | Text Only | Print | Product List | Glossary On
Versions: 1 2 3 4 5 6 7 8 9 10 11 12 13
000
FTUS43 KGLD 061122
TAFMCK
TAF
KMCK 061122Z 0612/0712 16007KT P6SM SCT250 WS020/19040KT
     FM061400 18011KT P6SM FEW250
     FM061800 16015G23KT P6SM SCT250
     FM070300 17013G18KT P6SM SCT250 WS020/19040KT
     FM070800 14007KT P6SM SCT250 WS020/21040KT=

USA.gov is the U.S. government's official web portal to all federal, state and local government web resources and services.